sensor_id;sensor_type;location;lat;lon;timestamp;P1;durP1;ratioP1;P2;durP2;ratioP2
2748;SDS011;1382;52.142;11.618;2024-01-16T00:01:26;7.77;;;2.20;;
2748;SDS011;1382;52.142;11.618;2024-01-16T00:03:52;4.10;;;2.63;;
2748;SDS011;1382;52.142;11.618;2024-01-16T00:06:19;5.47;;;3.17;;
2748;SDS011;1382;52.142;11.618;2024-01-16T00:08:46;8.13;;;3.00;;
2748;SDS011;1382;52.142;11.618;2024-01-16T00:11:13;4.27;;;1.33;;
2748;SDS011;1382;52.142;11.618;2024-01-16T00:13:41;3.87;;;1.43;;
2748;SDS011;1382;52.142;11.618;2024-01-16T00:16:08;7.00;;;2.13;;
2748;SDS011;1382;52.142;11.618;2024-01-16T00:18:35;7.23;;;2.53;;
2748;SDS011;1382;52.142;11.618;2024-01-16T00:21:01;2.20;;;1.90;;
2748;SDS011;1382;52.142;11.618;2024-01-16T00:23:29;6.87;;;2.13;;
2748;SDS011;1382;52.142;11.618;2024-01-16T00:25:56;3.57;;;1.60;;
2748;SDS011;1382;52.142;11.618;2024-01-16T00:28:22;2.93;;;1.83;;
2748;SDS011;1382;52.142;11.618;2024-01-16T00:30:51;2.80;;;1.87;;
2748;SDS011;1382;52.142;11.618;2024-01-16T00:33:17;2.97;;;1.83;;
2748;SDS011;1382;52.142;11.618;2024-01-16T00:35:44;2.23;;;1.70;;
2748;SDS011;1382;52.142;11.618;2024-01-16T00:38:12;2.93;;;1.53;;
2748;SDS011;1382;52.142;11.618;2024-01-16T00:40:38;6.23;;;1.93;;
2748;SDS011;1382;52.142;11.618;2024-01-16T00:43:05;4.80;;;2.50;;
2748;SDS011;1382;52.142;11.618;2024-01-16T00:45:32;3.53;;;1.57;;
2748;SDS011;1382;52.142;11.618;2024-01-16T00:48:00;2.50;;;1.57;;
2748;SDS011;1382;52.142;11.618;2024-01-16T00:50:27;5.03;;;2.10;;
2748;SDS011;1382;52.142;11.618;2024-01-16T00:52:54;11.20;;;2.20;;
2748;SDS011;1382;52.142;11.618;2024-01-16T00:55:21;3.57;;;2.20;;
2748;SDS011;1382;52.142;11.618;2024-01-16T00:57:48;3.47;;;2.37;;
2748;SDS011;1382;52.142;11.618;2024-01-16T01:00:15;2.83;;;1.93;;
2748;SDS011;1382;52.142;11.618;2024-01-16T01:02:42;3.40;;;1.93;;
2748;SDS011;1382;52.142;11.618;2024-01-16T01:05:11;2.57;;;2.37;;
2748;SDS011;1382;52.142;11.618;2024-01-16T01:07:38;4.37;;;2.50;;
2748;SDS011;1382;52.142;11.618;2024-01-16T01:10:05;2.27;;;2.10;;
2748;SDS011;1382;52.142;11.618;2024-01-16T01:12:33;2.93;;;2.27;;
2748;SDS011;1382;52.142;11.618;2024-01-16T01:15:00;4.57;;;2.90;;
2748;SDS011;1382;52.142;11.618;2024-01-16T01:17:27;5.80;;;2.10;;
2748;SDS011;1382;52.142;11.618;2024-01-16T01:19:54;5.27;;;2.73;;
2748;SDS011;1382;52.142;11.618;2024-01-16T01:22:23;3.03;;;2.57;;
2748;SDS011;1382;52.142;11.618;2024-01-16T01:24:50;6.23;;;3.20;;
2748;SDS011;1382;52.142;11.618;2024-01-16T01:27:17;3.87;;;3.10;;
2748;SDS011;1382;52.142;11.618;2024-01-16T01:29:44;5.70;;;2.63;;
2748;SDS011;1382;52.142;11.618;2024-01-16T01:32:11;3.37;;;2.00;;
2748;SDS011;1382;52.142;11.618;2024-01-16T01:34:38;4.97;;;3.10;;
2748;SDS011;1382;52.142;11.618;2024-01-16T01:37:07;2.83;;;2.20;;
2748;SDS011;1382;52.142;11.618;2024-01-16T01:39:35;4.03;;;2.40;;
2748;SDS011;1382;52.142;11.618;2024-01-16T01:42:02;6.73;;;2.40;;
2748;SDS011;1382;52.142;11.618;2024-01-16T01:44:29;3.13;;;2.43;;
2748;SDS011;1382;52.142;11.618;2024-01-16T01:46:57;2.50;;;2.03;;
2748;SDS011;1382;52.142;11.618;2024-01-16T01:49:25;3.03;;;2.40;;
2748;SDS011;1382;52.142;11.618;2024-01-16T01:51:52;4.70;;;3.27;;
2748;SDS011;1382;52.142;11.618;2024-01-16T01:54:20;3.17;;;2.87;;
2748;SDS011;1382;52.142;11.618;2024-01-16T01:56:49;3.93;;;3.30;;
2748;SDS011;1382;52.142;11.618;2024-01-16T01:59:17;5.43;;;2.50;;
2748;SDS011;1382;52.142;11.618;2024-01-16T02:01:45;5.80;;;3.10;;
2748;SDS011;1382;52.142;11.618;2024-01-16T02:04:12;6.50;;;3.23;;
2748;SDS011;1382;52.142;11.618;2024-01-16T02:06:41;4.43;;;3.30;;
2748;SDS011;1382;52.142;11.618;2024-01-16T02:09:08;4.57;;;3.00;;
2748;SDS011;1382;52.142;11.618;2024-01-16T02:11:37;4.33;;;2.80;;
2748;SDS011;1382;52.142;11.618;2024-01-16T02:14:05;5.80;;;2.90;;
2748;SDS011;1382;52.142;11.618;2024-01-16T02:16:35;5.00;;;2.73;;
2748;SDS011;1382;52.142;11.618;2024-01-16T02:19:03;6.23;;;2.53;;
2748;SDS011;1382;52.142;11.618;2024-01-16T02:21:33;5.13;;;2.53;;
2748;SDS011;1382;52.142;11.618;2024-01-16T02:24:05;7.00;;;3.20;;
2748;SDS011;1382;52.142;11.618;2024-01-16T02:26:33;4.20;;;2.30;;
2748;SDS011;1382;52.142;11.618;2024-01-16T02:29:00;4.07;;;2.90;;
2748;SDS011;1382;52.142;11.618;2024-01-16T02:31:27;3.70;;;2.80;;
2748;SDS011;1382;52.142;11.618;2024-01-16T02:33:54;4.70;;;2.30;;
2748;SDS011;1382;52.142;11.618;2024-01-16T02:36:21;3.33;;;2.03;;
2748;SDS011;1382;52.142;11.618;2024-01-16T02:38:48;3.17;;;2.30;;
2748;SDS011;1382;52.142;11.618;2024-01-16T02:41:16;3.33;;;2.00;;
2748;SDS011;1382;52.142;11.618;2024-01-16T02:43:44;2.93;;;1.70;;
2748;SDS011;1382;52.142;11.618;2024-01-16T02:46:11;2.43;;;1.53;;
2748;SDS011;1382;52.142;11.618;2024-01-16T02:48:38;3.33;;;2.20;;
2748;SDS011;1382;52.142;11.618;2024-01-16T02:51:06;4.43;;;1.90;;
2748;SDS011;1382;52.142;11.618;2024-01-16T02:53:33;5.47;;;2.17;;
2748;SDS011;1382;52.142;11.618;2024-01-16T02:56:00;2.00;;;1.70;;
2748;SDS011;1382;52.142;11.618;2024-01-16T02:58:30;2.20;;;1.83;;
2748;SDS011;1382;52.142;11.618;2024-01-16T03:00:57;3.00;;;2.20;;
2748;SDS011;1382;52.142;11.618;2024-01-16T03:03:24;2.20;;;1.40;;
2748;SDS011;1382;52.142;11.618;2024-01-16T03:05:51;6.33;;;1.93;;
2748;SDS011;1382;52.142;11.618;2024-01-16T03:08:18;2.07;;;1.40;;
2748;SDS011;1382;52.142;11.618;2024-01-16T03:10:45;2.27;;;1.97;;
2748;SDS011;1382;52.142;11.618;2024-01-16T03:13:12;3.10;;;1.60;;
2748;SDS011;1382;52.142;11.618;2024-01-16T03:15:41;2.20;;;1.40;;
2748;SDS011;1382;52.142;11.618;2024-01-16T03:18:07;2.67;;;1.37;;
2748;SDS011;1382;52.142;11.618;2024-01-16T03:20:35;1.83;;;1.00;;
2748;SDS011;1382;52.142;11.618;2024-01-16T03:23:01;2.37;;;1.00;;
2748;SDS011;1382;52.142;11.618;2024-01-16T03:25:28;1.57;;;1.37;;
2748;SDS011;1382;52.142;11.618;2024-01-16T03:27:55;1.33;;;0.80;;
2748;SDS011;1382;52.142;11.618;2024-01-16T03:30:22;2.27;;;2.07;;
2748;SDS011;1382;52.142;11.618;2024-01-16T03:32:51;2.23;;;2.00;;
2748;SDS011;1382;52.142;11.618;2024-01-16T03:35:18;2.73;;;1.70;;
2748;SDS011;1382;52.142;11.618;2024-01-16T03:37:45;6.90;;;2.70;;
2748;SDS011;1382;52.142;11.618;2024-01-16T03:40:12;3.67;;;1.80;;
2748;SDS011;1382;52.142;11.618;2024-01-16T03:42:38;1.70;;;1.60;;
2748;SDS011;1382;52.142;11.618;2024-01-16T03:45:06;1.90;;;1.80;;
2748;SDS011;1382;52.142;11.618;2024-01-16T03:47:34;5.00;;;2.10;;
2748;SDS011;1382;52.142;11.618;2024-01-16T03:50:02;4.83;;;2.50;;
2748;SDS011;1382;52.142;11.618;2024-01-16T03:52:29;2.43;;;1.90;;
2748;SDS011;1382;52.142;11.618;2024-01-16T03:54:56;4.43;;;2.17;;
2748;SDS011;1382;52.142;11.618;2024-01-16T03:57:26;7.90;;;1.70;;
2748;SDS011;1382;52.142;11.618;2024-01-16T03:59:52;2.13;;;1.93;;
2748;SDS011;1382;52.142;11.618;2024-01-16T04:02:19;4.00;;;2.47;;
2748;SDS011;1382;52.142;11.618;2024-01-16T04:04:46;4.67;;;1.83;;
2748;SDS011;1382;52.142;11.618;2024-01-16T04:07:14;5.07;;;2.30;;
2748;SDS011;1382;52.142;11.618;2024-01-16T04:09:42;9.10;;;2.77;;
2748;SDS011;1382;52.142;11.618;2024-01-16T04:12:09;2.37;;;1.60;;
2748;SDS011;1382;52.142;11.618;2024-01-16T04:14:36;1.90;;;1.47;;
2748;SDS011;1382;52.142;11.618;2024-01-16T04:17:03;2.73;;;2.00;;
2748;SDS011;1382;52.142;11.618;2024-01-16T04:19:30;2.47;;;2.30;;
2748;SDS011;1382;52.142;11.618;2024-01-16T04:21:57;4.40;;;2.37;;
2748;SDS011;1382;52.142;11.618;2024-01-16T04:24:25;5.53;;;2.40;;
2748;SDS011;1382;52.142;11.618;2024-01-16T04:26:52;7.30;;;2.77;;
2748;SDS011;1382;52.142;11.618;2024-01-16T04:29:19;5.40;;;2.13;;
2748;SDS011;1382;52.142;11.618;2024-01-16T04:31:46;3.80;;;3.23;;
2748;SDS011;1382;52.142;11.618;2024-01-16T04:34:13;5.43;;;2.47;;
2748;SDS011;1382;52.142;11.618;2024-01-16T04:36:40;7.17;;;3.33;;
2748;SDS011;1382;52.142;11.618;2024-01-16T04:39:07;5.23;;;2.73;;
2748;SDS011;1382;52.142;11.618;2024-01-16T04:41:36;5.50;;;2.77;;
2748;SDS011;1382;52.142;11.618;2024-01-16T04:44:03;5.27;;;2.17;;
2748;SDS011;1382;52.142;11.618;2024-01-16T04:46:30;4.27;;;2.67;;
2748;SDS011;1382;52.142;11.618;2024-01-16T04:48:57;4.90;;;2.20;;
2748;SDS011;1382;52.142;11.618;2024-01-16T04:51:24;5.03;;;2.37;;
2748;SDS011;1382;52.142;11.618;2024-01-16T04:53:50;1.73;;;1.63;;
2748;SDS011;1382;52.142;11.618;2024-01-16T04:56:17;3.53;;;1.43;;
2748;SDS011;1382;52.142;11.618;2024-01-16T04:58:45;1.37;;;1.23;;
2748;SDS011;1382;52.142;11.618;2024-01-16T05:01:12;7.00;;;2.07;;
2748;SDS011;1382;52.142;11.618;2024-01-16T05:03:39;2.87;;;1.40;;
2748;SDS011;1382;52.142;11.618;2024-01-16T05:06:11;2.50;;;1.40;;
2748;SDS011;1382;52.142;11.618;2024-01-16T05:08:39;4.20;;;1.00;;
2748;SDS011;1382;52.142;11.618;2024-01-16T05:11:05;3.53;;;1.20;;
2748;SDS011;1382;52.142;11.618;2024-01-16T05:13:32;4.40;;;2.10;;
2748;SDS011;1382;52.142;11.618;2024-01-16T05:16:01;3.70;;;1.43;;
2748;SDS011;1382;52.142;11.618;2024-01-16T05:18:28;2.70;;;1.60;;
2748;SDS011;1382;52.142;11.618;2024-01-16T05:20:55;2.03;;;1.80;;
2748;SDS011;1382;52.142;11.618;2024-01-16T05:23:24;2.80;;;1.60;;
2748;SDS011;1382;52.142;11.618;2024-01-16T05:25:51;3.90;;;1.40;;
2748;SDS011;1382;52.142;11.618;2024-01-16T05:28:17;3.37;;;1.63;;
2748;SDS011;1382;52.142;11.618;2024-01-16T05:30:44;2.40;;;1.33;;
2748;SDS011;1382;52.142;11.618;2024-01-16T05:33:13;1.30;;;1.20;;
2748;SDS011;1382;52.142;11.618;2024-01-16T05:35:40;5.00;;;1.70;;
2748;SDS011;1382;52.142;11.618;2024-01-16T05:38:07;2.53;;;1.27;;
2748;SDS011;1382;52.142;11.618;2024-01-16T05:40:34;4.20;;;1.67;;
2748;SDS011;1382;52.142;11.618;2024-01-16T05:43:01;1.90;;;1.73;;
2748;SDS011;1382;52.142;11.618;2024-01-16T05:45:28;3.13;;;1.20;;
2748;SDS011;1382;52.142;11.618;2024-01-16T05:47:55;3.03;;;1.37;;
2748;SDS011;1382;52.142;11.618;2024-01-16T05:50:24;9.73;;;2.43;;
2748;SDS011;1382;52.142;11.618;2024-01-16T05:52:51;2.07;;;1.70;;
2748;SDS011;1382;52.142;11.618;2024-01-16T05:55:17;4.13;;;2.63;;
2748;SDS011;1382;52.142;11.618;2024-01-16T05:57:44;4.43;;;2.50;;
2748;SDS011;1382;52.142;11.618;2024-01-16T06:00:11;4.90;;;2.40;;
2748;SDS011;1382;52.142;11.618;2024-01-16T06:02:39;3.70;;;1.93;;
2748;SDS011;1382;52.142;11.618;2024-01-16T06:05:06;3.60;;;2.70;;
2748;SDS011;1382;52.142;11.618;2024-01-16T06:07:34;3.20;;;2.47;;
2748;SDS011;1382;52.142;11.618;2024-01-16T06:10:01;10.20;;;2.90;;
2748;SDS011;1382;52.142;11.618;2024-01-16T06:12:31;4.27;;;2.20;;
2748;SDS011;1382;52.142;11.618;2024-01-16T06:14:58;5.90;;;2.77;;
2748;SDS011;1382;52.142;11.618;2024-01-16T06:17:25;4.17;;;2.70;;
2748;SDS011;1382;52.142;11.618;2024-01-16T06:19:52;5.30;;;2.40;;
2748;SDS011;1382;52.142;11.618;2024-01-16T06:22:19;10.80;;;3.17;;
2748;SDS011;1382;52.142;11.618;2024-01-16T06:24:47;4.97;;;3.00;;
2748;SDS011;1382;52.142;11.618;2024-01-16T06:27:14;9.33;;;2.77;;
2748;SDS011;1382;52.142;11.618;2024-01-16T06:29:40;4.77;;;2.37;;
2748;SDS011;1382;52.142;11.618;2024-01-16T06:32:07;6.90;;;1.97;;
2748;SDS011;1382;52.142;11.618;2024-01-16T06:34:34;7.73;;;2.87;;
2748;SDS011;1382;52.142;11.618;2024-01-16T06:37:01;5.70;;;2.60;;
2748;SDS011;1382;52.142;11.618;2024-01-16T06:39:28;6.20;;;2.70;;
2748;SDS011;1382;52.142;11.618;2024-01-16T06:41:56;5.93;;;2.50;;
2748;SDS011;1382;52.142;11.618;2024-01-16T06:44:23;3.03;;;1.93;;
2748;SDS011;1382;52.142;11.618;2024-01-16T06:46:50;7.20;;;2.50;;
2748;SDS011;1382;52.142;11.618;2024-01-16T06:49:17;3.93;;;2.50;;
2748;SDS011;1382;52.142;11.618;2024-01-16T06:51:44;4.27;;;1.80;;
2748;SDS011;1382;52.142;11.618;2024-01-16T06:54:11;3.60;;;2.40;;
2748;SDS011;1382;52.142;11.618;2024-01-16T06:56:38;5.00;;;1.90;;
2748;SDS011;1382;52.142;11.618;2024-01-16T06:59:06;4.40;;;2.53;;
2748;SDS011;1382;52.142;11.618;2024-01-16T07:01:37;4.70;;;2.37;;
2748;SDS011;1382;52.142;11.618;2024-01-16T07:04:04;7.83;;;3.07;;
2748;SDS011;1382;52.142;11.618;2024-01-16T07:06:31;7.80;;;2.10;;
2748;SDS011;1382;52.142;11.618;2024-01-16T07:08:58;7.30;;;2.30;;
2748;SDS011;1382;52.142;11.618;2024-01-16T07:11:24;7.67;;;2.30;;
2748;SDS011;1382;52.142;11.618;2024-01-16T07:13:51;3.23;;;2.10;;
2748;SDS011;1382;52.142;11.618;2024-01-16T07:16:20;7.00;;;2.53;;
2748;SDS011;1382;52.142;11.618;2024-01-16T07:18:47;8.57;;;3.00;;
2748;SDS011;1382;52.142;11.618;2024-01-16T07:21:17;14.87;;;3.10;;
2748;SDS011;1382;52.142;11.618;2024-01-16T07:23:44;7.63;;;2.63;;
2748;SDS011;1382;52.142;11.618;2024-01-16T07:26:11;5.47;;;2.53;;
2748;SDS011;1382;52.142;11.618;2024-01-16T07:28:38;3.63;;;1.83;;
2748;SDS011;1382;52.142;11.618;2024-01-16T07:31:05;10.07;;;2.17;;
2748;SDS011;1382;52.142;11.618;2024-01-16T07:33:33;3.63;;;3.20;;
2748;SDS011;1382;52.142;11.618;2024-01-16T07:36:00;8.87;;;2.77;;
2748;SDS011;1382;52.142;11.618;2024-01-16T07:38:27;4.63;;;2.63;;
2748;SDS011;1382;52.142;11.618;2024-01-16T07:40:54;3.90;;;2.03;;
2748;SDS011;1382;52.142;11.618;2024-01-16T07:43:21;3.43;;;1.63;;
2748;SDS011;1382;52.142;11.618;2024-01-16T07:45:48;11.27;;;2.40;;
2748;SDS011;1382;52.142;11.618;2024-01-16T07:48:14;5.97;;;2.17;;
2748;SDS011;1382;52.142;11.618;2024-01-16T07:50:43;6.00;;;2.00;;
2748;SDS011;1382;52.142;11.618;2024-01-16T07:53:09;13.23;;;2.70;;
2748;SDS011;1382;52.142;11.618;2024-01-16T07:55:36;8.23;;;1.97;;
2748;SDS011;1382;52.142;11.618;2024-01-16T07:58:03;5.67;;;1.90;;
2748;SDS011;1382;52.142;11.618;2024-01-16T08:00:32;8.20;;;2.80;;
2748;SDS011;1382;52.142;11.618;2024-01-16T08:02:59;4.13;;;2.30;;
2748;SDS011;1382;52.142;11.618;2024-01-16T08:05:27;2.37;;;1.30;;
2748;SDS011;1382;52.142;11.618;2024-01-16T08:07:55;4.50;;;2.10;;
2748;SDS011;1382;52.142;11.618;2024-01-16T08:10:22;3.47;;;1.70;;
2748;SDS011;1382;52.142;11.618;2024-01-16T08:12:49;4.50;;;1.63;;
2748;SDS011;1382;52.142;11.618;2024-01-16T08:15:16;11.80;;;2.00;;
2748;SDS011;1382;52.142;11.618;2024-01-16T08:17:44;6.70;;;2.10;;
2748;SDS011;1382;52.142;11.618;2024-01-16T08:20:11;6.40;;;2.30;;
2748;SDS011;1382;52.142;11.618;2024-01-16T08:22:38;3.03;;;1.73;;
2748;SDS011;1382;52.142;11.618;2024-01-16T08:25:07;4.93;;;2.40;;
2748;SDS011;1382;52.142;11.618;2024-01-16T08:27:34;11.10;;;2.37;;
2748;SDS011;1382;52.142;11.618;2024-01-16T08:30:01;8.63;;;2.60;;
2748;SDS011;1382;52.142;11.618;2024-01-16T08:32:27;3.20;;;1.30;;
2748;SDS011;1382;52.142;11.618;2024-01-16T08:34:54;7.23;;;2.00;;
2748;SDS011;1382;52.142;11.618;2024-01-16T08:37:21;6.30;;;2.57;;
2748;SDS011;1382;52.142;11.618;2024-01-16T08:39:48;4.77;;;2.17;;
2748;SDS011;1382;52.142;11.618;2024-01-16T08:42:17;4.90;;;1.63;;
2748;SDS011;1382;52.142;11.618;2024-01-16T08:44:43;5.77;;;2.00;;
2748;SDS011;1382;52.142;11.618;2024-01-16T08:47:10;5.33;;;2.03;;
2748;SDS011;1382;52.142;11.618;2024-01-16T08:49:37;13.33;;;2.93;;
2748;SDS011;1382;52.142;11.618;2024-01-16T08:52:04;6.50;;;2.70;;
2748;SDS011;1382;52.142;11.618;2024-01-16T08:54:31;9.20;;;2.43;;
2748;SDS011;1382;52.142;11.618;2024-01-16T08:56:58;4.83;;;2.30;;
2748;SDS011;1382;52.142;11.618;2024-01-16T08:59:26;7.63;;;2.10;;
2748;SDS011;1382;52.142;11.618;2024-01-16T09:01:53;8.70;;;2.73;;
2748;SDS011;1382;52.142;11.618;2024-01-16T09:04:20;3.07;;;1.80;;
2748;SDS011;1382;52.142;11.618;2024-01-16T09:06:47;5.40;;;2.73;;
2748;SDS011;1382;52.142;11.618;2024-01-16T09:09:14;11.40;;;2.80;;
2748;SDS011;1382;52.142;11.618;2024-01-16T09:11:41;4.97;;;2.20;;
2748;SDS011;1382;52.142;11.618;2024-01-16T09:14:08;4.90;;;2.90;;
2748;SDS011;1382;52.142;11.618;2024-01-16T09:16:36;4.63;;;2.30;;
2748;SDS011;1382;52.142;11.618;2024-01-16T09:19:03;9.97;;;2.77;;
2748;SDS011;1382;52.142;11.618;2024-01-16T09:21:30;4.47;;;1.67;;
2748;SDS011;1382;52.142;11.618;2024-01-16T09:23:57;7.43;;;2.47;;
2748;SDS011;1382;52.142;11.618;2024-01-16T09:26:24;10.43;;;2.33;;
2748;SDS011;1382;52.142;11.618;2024-01-16T09:28:51;8.57;;;2.50;;
2748;SDS011;1382;52.142;11.618;2024-01-16T09:31:18;3.60;;;2.03;;
2748;SDS011;1382;52.142;11.618;2024-01-16T09:33:46;4.43;;;1.60;;
2748;SDS011;1382;52.142;11.618;2024-01-16T09:36:13;8.47;;;2.17;;
2748;SDS011;1382;52.142;11.618;2024-01-16T09:38:40;5.77;;;2.23;;
2748;SDS011;1382;52.142;11.618;2024-01-16T09:41:07;3.70;;;2.37;;
2748;SDS011;1382;52.142;11.618;2024-01-16T09:43:33;6.40;;;1.80;;
2748;SDS011;1382;52.142;11.618;2024-01-16T09:46:01;3.90;;;2.23;;
2748;SDS011;1382;52.142;11.618;2024-01-16T09:48:31;8.10;;;2.27;;
2748;SDS011;1382;52.142;11.618;2024-01-16T09:51:00;3.90;;;2.13;;
2748;SDS011;1382;52.142;11.618;2024-01-16T09:53:27;5.27;;;2.80;;
2748;SDS011;1382;52.142;11.618;2024-01-16T09:55:54;4.00;;;1.80;;
2748;SDS011;1382;52.142;11.618;2024-01-16T09:58:27;6.50;;;2.07;;
2748;SDS011;1382;52.142;11.618;2024-01-16T10:00:58;3.07;;;2.30;;
2748;SDS011;1382;52.142;11.618;2024-01-16T10:03:26;10.33;;;2.67;;
2748;SDS011;1382;52.142;11.618;2024-01-16T10:05:57;4.33;;;2.13;;
2748;SDS011;1382;52.142;11.618;2024-01-16T10:08:25;8.47;;;2.73;;
2748;SDS011;1382;52.142;11.618;2024-01-16T10:10:53;7.03;;;1.90;;
2748;SDS011;1382;52.142;11.618;2024-01-16T10:13:20;4.70;;;2.53;;
2748;SDS011;1382;52.142;11.618;2024-01-16T10:15:49;5.77;;;3.83;;
2748;SDS011;1382;52.142;11.618;2024-01-16T10:18:22;2.33;;;1.70;;
2748;SDS011;1382;52.142;11.618;2024-01-16T10:20:50;3.63;;;2.00;;
2748;SDS011;1382;52.142;11.618;2024-01-16T10:23:21;5.20;;;2.90;;
2748;SDS011;1382;52.142;11.618;2024-01-16T10:28:42;4.60;;;3.10;;
2748;SDS011;1382;52.142;11.618;2024-01-16T10:31:10;7.73;;;3.57;;
2748;SDS011;1382;52.142;11.618;2024-01-16T10:33:38;5.30;;;2.10;;
2748;SDS011;1382;52.142;11.618;2024-01-16T10:36:08;8.43;;;2.67;;
2748;SDS011;1382;52.142;11.618;2024-01-16T10:38:36;6.43;;;2.40;;
2748;SDS011;1382;52.142;11.618;2024-01-16T10:41:08;6.10;;;2.50;;
2748;SDS011;1382;52.142;11.618;2024-01-16T10:43:36;12.20;;;3.17;;
2748;SDS011;1382;52.142;11.618;2024-01-16T10:46:08;9.20;;;2.90;;
2748;SDS011;1382;52.142;11.618;2024-01-16T10:48:39;10.60;;;3.73;;
2748;SDS011;1382;52.142;11.618;2024-01-16T10:51:09;6.10;;;2.90;;
2748;SDS011;1382;52.142;11.618;2024-01-16T10:53:36;6.60;;;2.97;;
2748;SDS011;1382;52.142;11.618;2024-01-16T10:56:05;5.17;;;2.20;;
2748;SDS011;1382;52.142;11.618;2024-01-16T10:58:36;9.07;;;3.60;;
2748;SDS011;1382;52.142;11.618;2024-01-16T11:01:09;8.60;;;2.70;;
2748;SDS011;1382;52.142;11.618;2024-01-16T11:03:38;5.80;;;2.30;;
2748;SDS011;1382;52.142;11.618;2024-01-16T11:06:09;7.77;;;3.20;;
2748;SDS011;1382;52.142;11.618;2024-01-16T11:08:38;6.80;;;2.53;;
2748;SDS011;1382;52.142;11.618;2024-01-16T11:11:06;6.63;;;2.60;;
2748;SDS011;1382;52.142;11.618;2024-01-16T11:13:34;5.70;;;2.60;;
2748;SDS011;1382;52.142;11.618;2024-01-16T11:16:02;2.97;;;2.10;;
2748;SDS011;1382;52.142;11.618;2024-01-16T11:18:31;4.10;;;2.30;;
2748;SDS011;1382;52.142;11.618;2024-01-16T11:20:58;5.43;;;2.50;;
2748;SDS011;1382;52.142;11.618;2024-01-16T11:23:34;5.03;;;2.63;;
2748;SDS011;1382;52.142;11.618;2024-01-16T11:26:11;4.97;;;2.97;;
2748;SDS011;1382;52.142;11.618;2024-01-16T11:28:57;5.13;;;2.70;;
2748;SDS011;1382;52.142;11.618;2024-01-16T11:31:28;9.37;;;3.23;;
2748;SDS011;1382;52.142;11.618;2024-01-16T11:33:58;5.90;;;2.83;;
2748;SDS011;1382;52.142;11.618;2024-01-16T11:39:18;7.20;;;3.53;;
2748;SDS011;1382;52.142;11.618;2024-01-16T11:41:52;4.10;;;3.20;;
2748;SDS011;1382;52.142;11.618;2024-01-16T11:44:39;7.53;;;2.80;;
2748;SDS011;1382;52.142;11.618;2024-01-16T11:47:07;7.13;;;3.07;;
2748;SDS011;1382;52.142;11.618;2024-01-16T11:49:36;6.10;;;3.00;;
2748;SDS011;1382;52.142;11.618;2024-01-16T11:52:04;5.80;;;3.57;;
2748;SDS011;1382;52.142;11.618;2024-01-16T11:54:31;4.97;;;3.40;;
2748;SDS011;1382;52.142;11.618;2024-01-16T12:00:03;7.43;;;3.50;;
2748;SDS011;1382;52.142;11.618;2024-01-16T12:02:36;8.80;;;3.90;;
2748;SDS011;1382;52.142;11.618;2024-01-16T12:05:23;7.73;;;4.73;;
2748;SDS011;1382;52.142;11.618;2024-01-16T12:08:07;7.73;;;3.70;;
2748;SDS011;1382;52.142;11.618;2024-01-16T12:13:22;9.13;;;4.20;;
2748;SDS011;1382;52.142;11.618;2024-01-16T12:15:58;6.07;;;3.43;;
2748;SDS011;1382;52.142;11.618;2024-01-16T12:18:27;8.20;;;3.63;;
2748;SDS011;1382;52.142;11.618;2024-01-16T12:21:09;8.33;;;5.23;;
2748;SDS011;1382;52.142;11.618;2024-01-16T12:23:37;6.53;;;3.80;;
2748;SDS011;1382;52.142;11.618;2024-01-16T12:26:19;10.27;;;4.17;;
2748;SDS011;1382;52.142;11.618;2024-01-16T12:28:49;8.27;;;3.80;;
2748;SDS011;1382;52.142;11.618;2024-01-16T12:31:25;5.50;;;3.67;;
2748;SDS011;1382;52.142;11.618;2024-01-16T12:34:04;5.70;;;3.77;;
2748;SDS011;1382;52.142;11.618;2024-01-16T12:36:40;7.83;;;4.30;;
2748;SDS011;1382;52.142;11.618;2024-01-16T12:39:08;7.17;;;3.73;;
2748;SDS011;1382;52.142;11.618;2024-01-16T12:41:39;8.77;;;4.67;;
2748;SDS011;1382;52.142;11.618;2024-01-16T12:44:10;6.93;;;3.87;;
2748;SDS011;1382;52.142;11.618;2024-01-16T12:46:42;7.47;;;4.20;;
2748;SDS011;1382;52.142;11.618;2024-01-16T12:49:10;8.27;;;5.00;;
2748;SDS011;1382;52.142;11.618;2024-01-16T12:51:38;7.53;;;4.10;;
2748;SDS011;1382;52.142;11.618;2024-01-16T12:54:12;7.17;;;3.83;;
2748;SDS011;1382;52.142;11.618;2024-01-16T12:56:39;7.63;;;3.77;;
2748;SDS011;1382;52.142;11.618;2024-01-16T12:59:10;14.73;;;4.27;;
2748;SDS011;1382;52.142;11.618;2024-01-16T13:01:40;9.73;;;5.50;;
2748;SDS011;1382;52.142;11.618;2024-01-16T13:04:07;6.90;;;4.10;;
2748;SDS011;1382;52.142;11.618;2024-01-16T13:06:38;8.90;;;3.80;;
2748;SDS011;1382;52.142;11.618;2024-01-16T13:09:06;9.67;;;4.37;;
2748;SDS011;1382;52.142;11.618;2024-01-16T13:11:44;8.40;;;3.80;;
2748;SDS011;1382;52.142;11.618;2024-01-16T13:14:11;6.37;;;3.50;;
2748;SDS011;1382;52.142;11.618;2024-01-16T13:16:40;8.63;;;3.93;;
2748;SDS011;1382;52.142;11.618;2024-01-16T13:19:07;10.40;;;3.87;;
2748;SDS011;1382;52.142;11.618;2024-01-16T13:21:45;8.33;;;3.70;;
2748;SDS011;1382;52.142;11.618;2024-01-16T13:25:39;6.20;;;4.50;;
2748;SDS011;1382;52.142;11.618;2024-01-16T13:28:18;9.90;;;4.00;;
2748;SDS011;1382;52.142;11.618;2024-01-16T13:31:30;10.33;;;5.63;;
2748;SDS011;1382;52.142;11.618;2024-01-16T13:36:47;6.80;;;4.53;;
2748;SDS011;1382;52.142;11.618;2024-01-16T13:49:41;7.90;;;4.83;;
2748;SDS011;1382;52.142;11.618;2024-01-16T13:56:02;7.80;;;3.60;;
2748;SDS011;1382;52.142;11.618;2024-01-16T13:58:29;7.33;;;4.10;;
2748;SDS011;1382;52.142;11.618;2024-01-16T14:00:59;6.67;;;3.67;;
2748;SDS011;1382;52.142;11.618;2024-01-16T14:04:08;10.70;;;3.20;;
2748;SDS011;1382;52.142;11.618;2024-01-16T14:06:47;16.43;;;5.43;;
2748;SDS011;1382;52.142;11.618;2024-01-16T14:09:37;10.07;;;4.03;;
2748;SDS011;1382;52.142;11.618;2024-01-16T14:15:47;11.73;;;4.37;;
2748;SDS011;1382;52.142;11.618;2024-01-16T14:21:37;7.43;;;4.17;;
2748;SDS011;1382;52.142;11.618;2024-01-16T14:24:33;5.17;;;3.73;;
2748;SDS011;1382;52.142;11.618;2024-01-16T14:27:47;8.20;;;4.30;;
2748;SDS011;1382;52.142;11.618;2024-01-16T14:30:52;8.63;;;5.50;;
2748;SDS011;1382;52.142;11.618;2024-01-16T14:33:41;7.63;;;4.40;;
2748;SDS011;1382;52.142;11.618;2024-01-16T14:36:18;10.83;;;5.50;;
2748;SDS011;1382;52.142;11.618;2024-01-16T14:38:58;9.27;;;4.80;;
2748;SDS011;1382;52.142;11.618;2024-01-16T14:41:56;9.63;;;6.20;;
2748;SDS011;1382;52.142;11.618;2024-01-16T14:44:25;7.50;;;5.10;;
2748;SDS011;1382;52.142;11.618;2024-01-16T14:47:03;7.70;;;5.33;;
2748;SDS011;1382;52.142;11.618;2024-01-16T14:49:58;6.83;;;5.23;;
2748;SDS011;1382;52.142;11.618;2024-01-16T14:52:25;9.17;;;4.63;;
2748;SDS011;1382;52.142;11.618;2024-01-16T14:54:52;11.27;;;5.87;;
2748;SDS011;1382;52.142;11.618;2024-01-16T14:57:21;7.07;;;5.20;;
2748;SDS011;1382;52.142;11.618;2024-01-16T14:59:51;12.00;;;5.50;;
2748;SDS011;1382;52.142;11.618;2024-01-16T15:02:19;11.30;;;5.40;;
2748;SDS011;1382;52.142;11.618;2024-01-16T15:04:46;12.87;;;6.00;;
2748;SDS011;1382;52.142;11.618;2024-01-16T15:07:16;9.83;;;5.13;;
2748;SDS011;1382;52.142;11.618;2024-01-16T15:09:45;8.20;;;5.90;;
2748;SDS011;1382;52.142;11.618;2024-01-16T15:12:12;10.40;;;6.70;;
2748;SDS011;1382;52.142;11.618;2024-01-16T15:14:47;10.33;;;6.30;;
2748;SDS011;1382;52.142;11.618;2024-01-16T15:17:19;10.97;;;6.20;;
2748;SDS011;1382;52.142;11.618;2024-01-16T15:20:10;8.53;;;6.10;;
2748;SDS011;1382;52.142;11.618;2024-01-16T15:22:44;14.07;;;6.40;;
2748;SDS011;1382;52.142;11.618;2024-01-16T15:25:14;11.53;;;6.33;;
2748;SDS011;1382;52.142;11.618;2024-01-16T15:27:50;12.50;;;5.10;;
2748;SDS011;1382;52.142;11.618;2024-01-16T15:30:23;13.00;;;6.60;;
2748;SDS011;1382;52.142;11.618;2024-01-16T15:32:51;9.90;;;6.87;;
2748;SDS011;1382;52.142;11.618;2024-01-16T15:35:26;8.10;;;4.43;;
2748;SDS011;1382;52.142;11.618;2024-01-16T15:37:57;10.77;;;6.00;;
2748;SDS011;1382;52.142;11.618;2024-01-16T15:40:30;11.90;;;5.57;;
2748;SDS011;1382;52.142;11.618;2024-01-16T15:42:57;7.30;;;5.73;;
2748;SDS011;1382;52.142;11.618;2024-01-16T15:45:25;14.00;;;7.00;;
2748;SDS011;1382;52.142;11.618;2024-01-16T15:47:55;8.27;;;5.70;;
2748;SDS011;1382;52.142;11.618;2024-01-16T15:50:22;7.67;;;5.87;;